Time;durP1;ratioP1;P1;durP2;ratioP2;P2;SDS_P1;SDS_P2;PMS_P1;PMS_P2;Temp;Humidity;BMP_temperature;BMP_pressure;BME280_temperature;BME280_humidity;BME280_pressure;Samples;Min_cycle;Max_cycle;Signal;HPM_P1;HPM_P2
2021/08/31 00:02:01;;;;;;;45.85;32.47;;;21.70;92.20;;;;;;5015801;28;20021;-80
2021/08/31 00:04:27;;;;;;;40.05;30.08;;;21.70;92.20;;;;;;5017486;28;20056;-79
2021/08/31 00:06:53;;;;;;;37.95;29.70;;;21.70;92.10;;;;;;5018489;28;20030;-80
2021/08/31 00:09:20;;;;;;;37.03;29.98;;;21.70;91.90;;;;;;5016150;28;20100;-79
2021/08/31 00:11:46;;;;;;;39.03;30.05;;;21.70;91.90;;;;;;5015452;28;20021;-79
2021/08/31 00:14:13;;;;;;;35.17;29.13;;;21.70;91.90;;;;;;4997752;28;20033;-79
2021/08/31 00:16:39;;;;;;;37.83;28.17;;;21.70;91.80;;;;;;5015491;28;20014;-79
2021/08/31 00:19:05;;;;;;;34.15;27.55;;;21.70;91.70;;;;;;5015468;28;20018;-78
2021/08/31 00:21:31;;;;;;;33.72;27.73;;;21.70;91.70;;;;;;5015425;28;20101;-78
2021/08/31 00:23:56;;;;;;;35.95;28.20;;;21.80;91.60;;;;;;5015925;28;20376;-79
2021/08/31 00:26:22;;;;;;;32.83;28.02;;;21.80;91.50;;;;;;5015070;28;20038;-80
2021/08/31 00:28:48;;;;;;;37.97;30.63;;;21.80;91.40;;;;;;5015259;28;20026;-80
2021/08/31 00:31:13;;;;;;;38.72;30.10;;;21.80;91.30;;;;;;5015428;28;20026;-80
2021/08/31 00:33:39;;;;;;;41.85;31.23;;;21.80;91.10;;;;;;5015107;28;20018;-80
2021/08/31 00:36:05;;;;;;;44.00;32.42;;;21.80;91.00;;;;;;5015178;28;20030;-80
2021/08/31 00:38:31;;;;;;;41.92;33.30;;;21.80;90.90;;;;;;5014873;28;20423;-78
2021/08/31 00:40:58;;;;;;;41.15;33.10;;;21.80;90.90;;;;;;5014612;28;20089;-79
2021/08/31 00:43:24;;;;;;;45.97;34.03;;;21.80;91.00;;;;;;5014893;28;20029;-78
2021/08/31 00:45:50;;;;;;;46.20;35.88;;;21.80;91.00;;;;;;5014794;28;20036;-78
2021/08/31 00:48:17;;;;;;;46.53;35.10;;;21.80;91.00;;;;;;5014988;28;20029;-78
2021/08/31 00:50:45;;;;;;;48.50;34.97;;;21.80;91.10;;;;;;5014081;28;20030;-79
2021/08/31 00:53:11;;;;;;;45.42;35.47;;;21.80;91.10;;;;;;5014512;28;20088;-79
2021/08/31 00:55:37;;;;;;;47.28;35.50;;;21.80;91.10;;;;;;5014477;28;20026;-79
2021/08/31 00:58:03;;;;;;;49.05;37.40;;;21.80;91.10;;;;;;5014898;28;20022;-79
2021/08/31 01:00:28;;;;;;;45.85;36.20;;;21.80;91.10;;;;;;5014694;28;20024;-79
2021/08/31 01:02:55;;;;;;;49.40;36.17;;;21.80;91.10;;;;;;5014732;28;20046;-79
2021/08/31 01:05:21;;;;;;;48.15;36.70;;;21.80;91.10;;;;;;5014574;28;20052;-81
2021/08/31 01:07:47;;;;;;;53.38;38.10;;;21.80;91.40;;;;;;5013852;28;20026;-81
2021/08/31 01:10:16;;;;;;;52.03;37.97;;;21.80;91.20;;;;;;5014821;28;20480;-81
2021/08/31 01:12:43;;;;;;;51.95;36.28;;;21.80;91.20;;;;;;5014338;28;20037;-82
2021/08/31 01:15:13;;;;;;;51.65;37.25;;;21.80;91.20;;;;;;4996689;28;20026;-80
2021/08/31 01:17:39;;;;;;;50.03;37.38;;;21.70;91.10;;;;;;5014501;28;20049;-81
2021/08/31 01:20:05;;;;;;;51.80;37.75;;;21.70;91.10;;;;;;5014234;28;20193;-82
2021/08/31 01:22:31;;;;;;;52.58;37.55;;;21.70;91.20;;;;;;4996763;28;20018;-81
2021/08/31 01:24:59;;;;;;;50.60;37.47;;;21.70;91.20;;;;;;5014136;28;20028;-82
2021/08/31 01:27:26;;;;;;;52.20;37.25;;;21.70;91.30;;;;;;5016865;28;20432;-82
2021/08/31 01:29:53;;;;;;;52.22;38.15;;;21.70;91.40;;;;;;5018476;28;20037;-80
2021/08/31 01:32:18;;;;;;;51.63;38.13;;;21.60;91.30;;;;;;5016975;28;20022;-80
2021/08/31 01:34:44;;;;;;;55.97;38.45;;;21.60;91.30;;;;;;5014423;28;20092;-80
2021/08/31 01:37:11;;;;;;;55.25;38.58;;;21.60;91.40;;;;;;4996572;28;20037;-80
2021/08/31 01:39:38;;;;;;;50.88;37.30;;;21.60;91.40;;;;;;5014318;28;20018;-80
2021/08/31 01:42:04;;;;;;;56.42;36.58;;;21.60;91.40;;;;;;4997002;28;20392;-80
2021/08/31 01:44:30;;;;;;;53.58;38.00;;;21.60;91.40;;;;;;5014513;28;20030;-81
2021/08/31 01:46:56;;;;;;;57.55;38.88;;;21.50;91.40;;;;;;5014945;28;20030;-80
2021/08/31 01:49:21;;;;;;;54.42;36.78;;;21.50;91.40;;;;;;5014152;28;20491;-81
2021/08/31 01:51:47;;;;;;;53.25;35.05;;;21.50;91.30;;;;;;5014143;28;20101;-80
2021/08/31 01:54:13;;;;;;;55.42;35.17;;;21.50;91.30;;;;;;5014311;28;20026;-80
2021/08/31 01:56:39;;;;;;;51.08;34.90;;;21.40;91.30;;;;;;5014305;28;20026;-80
2021/08/31 01:59:06;;;;;;;49.92;34.15;;;21.40;91.30;;;;;;5014501;28;20040;-80
2021/08/31 02:01:31;;;;;;;47.67;34.35;;;21.40;91.40;;;;;;5014504;28;20026;-81
2021/08/31 02:04:00;;;;;;;52.20;34.70;;;21.40;91.50;;;;;;5014017;28;20034;-81
2021/08/31 02:06:26;;;;;;;58.65;34.20;;;21.40;91.60;;;;;;5014581;28;20022;-81
2021/08/31 02:08:51;;;;;;;49.65;32.97;;;21.40;91.60;;;;;;5014314;28;20037;-79
2021/08/31 02:11:17;;;;;;;49.42;31.30;;;21.30;91.60;;;;;;5016107;28;20376;-78
2021/08/31 02:13:43;;;;;;;48.60;30.95;;;21.30;91.40;;;;;;5015703;28;20026;-79
2021/08/31 02:16:09;;;;;;;45.20;31.10;;;21.30;91.40;;;;;;5013871;28;20034;-79
2021/08/31 02:18:39;;;;;;;46.80;29.45;;;21.30;91.30;;;;;;5014878;28;20038;-79
2021/08/31 02:21:06;;;;;;;48.15;30.58;;;21.30;91.10;;;;;;5017416;28;20069;-78
2021/08/31 02:23:32;;;;;;;46.15;29.02;;;21.20;91.00;;;;;;4999778;28;20484;-79
2021/08/31 02:25:58;;;;;;;51.42;28.67;;;21.20;90.80;;;;;;5017508;28;20034;-79
2021/08/31 02:28:24;;;;;;;44.97;29.00;;;21.10;90.80;;;;;;5017662;28;20022;-80
2021/08/31 02:30:50;;;;;;;49.80;30.05;;;21.10;90.80;;;;;;5017731;28;20034;-80
2021/08/31 02:33:15;;;;;;;51.53;30.45;;;21.10;90.70;;;;;;5017644;28;20677;-80
2021/08/31 02:35:41;;;;;;;48.47;29.88;;;21.00;90.70;;;;;;5017067;28;20469;-79
2021/08/31 02:38:07;;;;;;;52.20;31.23;;;20.90;90.70;;;;;;5017074;28;20026;-79
2021/08/31 02:40:33;;;;;;;53.08;31.30;;;20.90;90.90;;;;;;5017226;28;20029;-80
2021/08/31 02:42:59;;;;;;;49.78;30.10;;;20.80;91.00;;;;;;5017033;28;20071;-79
2021/08/31 02:45:24;;;;;;;51.05;30.77;;;20.80;91.00;;;;;;5018124;28;20117;-80
2021/08/31 02:47:50;;;;;;;54.72;30.85;;;20.80;91.10;;;;;;5016882;28;20038;-80
2021/08/31 02:50:16;;;;;;;54.38;30.10;;;20.80;91.10;;;;;;5017672;28;20040;-79
2021/08/31 02:52:44;;;;;;;53.33;29.33;;;20.80;91.10;;;;;;5020610;28;20056;-80
2021/08/31 02:55:10;;;;;;;49.47;29.92;;;20.70;91.10;;;;;;5020090;28;20026;-79
2021/08/31 02:57:36;;;;;;;45.60;28.83;;;20.70;90.90;;;;;;5002381;28;20022;-80
2021/08/31 03:00:04;;;;;;;44.50;27.48;;;20.60;90.90;;;;;;5017471;28;20029;-80
2021/08/31 03:02:29;;;;;;;49.13;29.13;;;20.50;91.00;;;;;;5017431;28;20030;-81
2021/08/31 03:04:55;;;;;;;46.53;26.83;;;20.50;91.10;;;;;;5017069;28;20033;-84
2021/08/31 03:07:22;;;;;;;42.58;26.70;;;20.50;91.50;;;;;;5022898;28;20073;-82
2021/08/31 03:09:47;;;;;;;48.78;28.58;;;20.40;91.50;;;;;;5021036;28;20025;-82
2021/08/31 03:12:13;;;;;;;41.65;27.27;;;20.40;91.40;;;;;;5021193;28;20084;-82
2021/08/31 03:14:39;;;;;;;45.83;28.92;;;20.40;91.40;;;;;;5009385;28;20090;-84
2021/08/31 03:17:06;;;;;;;43.33;27.30;;;20.40;91.30;;;;;;5017169;28;20061;-83
2021/08/31 03:19:32;;;;;;;45.55;29.05;;;20.40;91.40;;;;;;5013240;28;20022;-83
2021/08/31 03:21:59;;;;;;;47.53;28.45;;;20.40;91.60;;;;;;5017151;28;20076;-84
2021/08/31 03:24:26;;;;;;;43.65;28.35;;;20.40;91.60;;;;;;5016725;28;20018;-83
2021/08/31 03:26:52;;;;;;;46.15;28.85;;;20.30;91.50;;;;;;5015984;28;20018;-81
2021/08/31 03:29:18;;;;;;;41.35;26.83;;;20.30;91.50;;;;;;5015560;28;20033;-84
2021/08/31 03:31:44;;;;;;;40.85;27.80;;;20.30;91.60;;;;;;5015935;28;20041;-84
2021/08/31 03:34:10;;;;;;;42.38;26.50;;;20.30;91.60;;;;;;5011739;28;20046;-83
2021/08/31 03:36:36;;;;;;;41.03;27.98;;;20.30;91.60;;;;;;5020014;28;20476;-81
2021/08/31 03:39:02;;;;;;;43.58;27.58;;;20.30;91.60;;;;;;4998741;28;20034;-83
2021/08/31 03:41:28;;;;;;;39.28;26.33;;;20.20;91.60;;;;;;4996801;28;20043;-82
2021/08/31 03:43:54;;;;;;;40.25;26.75;;;20.20;91.70;;;;;;5006437;28;20354;-83
2021/08/31 03:46:20;;;;;;;44.17;28.42;;;20.20;91.70;;;;;;5016427;28;20034;-84
2021/08/31 03:48:46;;;;;;;43.50;26.45;;;20.20;91.70;;;;;;5016265;28;20113;-84
2021/08/31 03:51:12;;;;;;;38.75;26.10;;;20.20;91.70;;;;;;5016608;28;20065;-84
2021/08/31 03:53:37;;;;;;;38.67;25.63;;;20.20;91.80;;;;;;5015747;28;20426;-84
2021/08/31 03:56:03;;;;;;;35.25;24.58;;;20.10;92.10;;;;;;5014583;28;20060;-81
2021/08/31 03:58:29;;;;;;;40.15;24.95;;;20.10;91.80;;;;;;5013544;28;20117;-81
2021/08/31 04:00:55;;;;;;;36.13;25.50;;;20.10;91.80;;;;;;5013857;28;20097;-81
2021/08/31 04:03:21;;;;;;;40.75;26.73;;;20.10;91.70;;;;;;5013601;28;20030;-81
2021/08/31 04:05:47;;;;;;;35.38;25.33;;;20.10;91.70;;;;;;5014146;28;20029;-81
2021/08/31 04:08:12;;;;;;;35.03;26.17;;;20.10;91.60;;;;;;5014271;28;20026;-80
2021/08/31 04:10:38;;;;;;;40.30;26.13;;;20.10;91.60;;;;;;5014019;28;20064;-81
2021/08/31 04:13:07;;;;;;;38.58;24.10;;;20.10;91.60;;;;;;5010866;28;20034;-74
2021/08/31 04:15:33;;;;;;;37.80;24.45;;;20.10;91.40;;;;;;5003299;28;20037;-75
2021/08/31 04:17:58;;;;;;;36.58;24.95;;;20.20;91.30;;;;;;4993583;28;20023;-76
2021/08/31 04:20:24;;;;;;;36.20;23.90;;;20.20;91.30;;;;;;4993507;28;20097;-78
2021/08/31 04:22:49;;;;;;;39.53;25.27;;;20.20;91.20;;;;;;4977917;28;20039;-76
2021/08/31 04:25:15;;;;;;;33.10;24.08;;;20.30;91.10;;;;;;5012769;28;20026;-77
2021/08/31 04:27:41;;;;;;;34.17;23.38;;;20.30;91.00;;;;;;5012968;28;20030;-76
2021/08/31 04:30:07;;;;;;;35.28;24.05;;;20.40;90.80;;;;;;5013136;28;20109;-76
2021/08/31 04:32:33;;;;;;;40.15;23.92;;;20.40;90.70;;;;;;5011074;28;20120;-75
2021/08/31 04:35:02;;;;;;;35.88;23.92;;;20.40;90.50;;;;;;5001622;28;20030;-75
2021/08/31 04:37:29;;;;;;;36.83;22.52;;;20.50;90.40;;;;;;4998874;28;20013;-76
2021/08/31 04:39:55;;;;;;;42.17;27.20;;;20.50;90.30;;;;;;5012633;28;20078;-76
2021/08/31 04:42:20;;;;;;;39.08;23.05;;;20.50;90.30;;;;;;5012205;28;20078;-74
2021/08/31 04:44:46;;;;;;;34.70;21.95;;;20.50;90.20;;;;;;5012331;28;20053;-76
2021/08/31 04:47:12;;;;;;;31.48;21.48;;;20.50;90.20;;;;;;4994757;28;20468;-75
2021/08/31 04:49:37;;;;;;;33.17;20.75;;;20.50;90.10;;;;;;5012427;28;20084;-76
2021/08/31 04:52:03;;;;;;;29.35;21.58;;;20.60;90.00;;;;;;4994943;28;20052;-76
2021/08/31 04:54:29;;;;;;;27.15;20.45;;;20.60;90.00;;;;;;5012377;28;20035;-76
2021/08/31 04:56:55;;;;;;;31.55;20.35;;;20.60;89.80;;;;;;5011104;28;20465;-77
2021/08/31 04:59:21;;;;;;;25.08;19.58;;;20.60;89.50;;;;;;5012257;28;20030;-76
2021/08/31 05:01:47;;;;;;;29.92;20.35;;;20.70;89.40;;;;;;5012564;28;20025;-76
2021/08/31 05:04:12;;;;;;;28.17;20.40;;;20.70;89.00;;;;;;5012376;28;20100;-75
2021/08/31 05:06:38;;;;;;;23.70;19.50;;;20.70;88.80;;;;;;5012219;28;20474;-75
2021/08/31 05:09:04;;;;;;;27.30;19.02;;;20.80;88.70;;;;;;5012130;28;20138;-75
2021/08/31 05:11:29;;;;;;;25.20;19.42;;;20.80;88.30;;;;;;5011787;28;20025;-73
2021/08/31 05:13:55;;;;;;;25.55;18.92;;;20.80;88.20;;;;;;5011644;28;20029;-75
2021/08/31 05:16:21;;;;;;;28.10;19.15;;;20.80;88.10;;;;;;5011670;28;20025;-75
2021/08/31 05:18:47;;;;;;;24.55;19.27;;;20.90;87.70;;;;;;5010481;28;20021;-74
2021/08/31 05:21:13;;;;;;;28.88;19.48;;;20.90;87.40;;;;;;5011630;28;20430;-74
2021/08/31 05:23:38;;;;;;;23.88;18.08;;;21.00;87.00;;;;;;5011493;28;20026;-73
2021/08/31 05:26:04;;;;;;;31.52;19.92;;;21.00;86.70;;;;;;5010914;28;20492;-73
2021/08/31 05:28:30;;;;;;;22.27;18.42;;;21.00;86.60;;;;;;5011736;28;20477;-74
2021/08/31 05:30:56;;;;;;;23.95;18.23;;;21.00;86.50;;;;;;5009356;28;20345;-76
2021/08/31 05:33:21;;;;;;;29.70;20.27;;;21.10;86.30;;;;;;5011370;28;20037;-73
2021/08/31 05:35:47;;;;;;;25.90;19.05;;;21.10;85.90;;;;;;5010980;28;20049;-74
2021/08/31 05:38:13;;;;;;;25.65;18.00;;;21.10;85.80;;;;;;5010094;28;20066;-73
2021/08/31 05:40:39;;;;;;;24.65;17.02;;;21.20;85.40;;;;;;5011304;28;20026;-74
2021/08/31 05:43:04;;;;;;;28.98;19.23;;;21.20;85.20;;;;;;5011121;28;20045;-73
2021/08/31 05:45:32;;;;;;;24.42;18.45;;;21.20;85.10;;;;;;5011444;28;20129;-73
2021/08/31 05:47:58;;;;;;;27.58;18.15;;;21.20;85.10;;;;;;5005204;28;20029;-75
2021/08/31 05:50:23;;;;;;;22.70;17.55;;;21.30;84.90;;;;;;5007546;28;20022;-73
2021/08/31 05:52:49;;;;;;;24.38;17.30;;;21.40;84.50;;;;;;5010862;28;20129;-72
2021/08/31 05:55:15;;;;;;;19.50;16.20;;;21.50;84.10;;;;;;5014484;28;20239;-74
2021/08/31 05:57:41;;;;;;;24.48;16.83;;;21.50;83.70;;;;;;5015326;28;20111;-73
2021/08/31 06:00:08;;;;;;;26.88;17.33;;;21.60;83.50;;;;;;5015625;28;20136;-73
2021/08/31 06:02:34;;;;;;;24.13;17.17;;;21.70;83.20;;;;;;5009315;28;20332;-73
2021/08/31 06:05:00;;;;;;;24.80;16.95;;;21.80;82.80;;;;;;5001618;28;20104;-73
2021/08/31 06:07:26;;;;;;;19.58;16.23;;;21.80;82.60;;;;;;5006384;28;20038;-74
2021/08/31 06:09:52;;;;;;;21.13;16.80;;;21.90;82.50;;;;;;5011232;28;20030;-75
2021/08/31 06:12:18;;;;;;;27.73;17.30;;;22.00;82.10;;;;;;5004802;28;20085;-73
2021/08/31 06:14:44;;;;;;;23.40;17.80;;;22.10;81.60;;;;;;5012074;28;20026;-73
2021/08/31 06:17:10;;;;;;;20.92;16.63;;;22.20;81.20;;;;;;5014973;28;20036;-73
2021/08/31 06:19:37;;;;;;;22.50;17.40;;;22.30;80.90;;;;;;5014836;28;20029;-73
2021/08/31 06:22:03;;;;;;;23.67;18.27;;;22.40;80.60;;;;;;5014856;28;20022;-75
2021/08/31 06:24:29;;;;;;;29.50;19.27;;;22.50;80.90;;;;;;5014928;28;20030;-74
2021/08/31 06:26:55;;;;;;;25.05;19.17;;;22.60;80.00;;;;;;5013142;28;20026;-73
2021/08/31 06:29:21;;;;;;;21.38;15.95;;;22.80;79.50;;;;;;5005089;28;20026;-73
2021/08/31 06:31:47;;;;;;;22.90;16.77;;;23.10;79.80;;;;;;4995212;28;20493;-73
2021/08/31 06:34:13;;;;;;;24.30;15.38;;;24.00;78.30;;;;;;4995117;28;20026;-73
2021/08/31 06:36:38;;;;;;;17.40;13.93;;;24.70;75.80;;;;;;4995459;28;20030;-75
2021/08/31 06:39:04;;;;;;;15.73;13.68;;;25.60;73.60;;;;;;4995023;28;20022;-73
2021/08/31 06:41:30;;;;;;;19.05;12.85;;;26.60;71.40;;;;;;4994722;28;20400;-74
2021/08/31 06:43:56;;;;;;;13.20;11.82;;;27.60;68.40;;;;;;4994523;28;20037;-73
2021/08/31 06:46:21;;;;;;;16.60;11.95;;;28.10;65.90;;;;;;4994182;28;20018;-72
2021/08/31 06:48:47;;;;;;;15.77;11.82;;;28.80;64.20;;;;;;4994816;28;20035;-73
2021/08/31 06:51:14;;;;;;;12.45;11.20;;;29.50;62.90;;;;;;4995675;28;20732;-75
2021/08/31 06:53:41;;;;;;;19.80;10.73;;;30.30;61.20;;;;;;5012170;28;20113;-77
2021/08/31 06:56:07;;;;;;;16.25;10.55;;;31.00;59.50;;;;;;5002785;28;20114;-75
2021/08/31 06:58:32;;;;;;;13.07;10.13;;;31.90;58.20;;;;;;4994640;28;20115;-75
2021/08/31 07:00:58;;;;;;;17.35;9.35;;;32.90;56.60;;;;;;4994676;28;20026;-75
2021/08/31 07:03:25;;;;;;;9.50;8.60;;;33.70;54.70;;;;;;4995316;28;20110;-76
2021/08/31 07:05:50;;;;;;;14.38;9.23;;;34.30;52.90;;;;;;4995856;28;20038;-75
2021/08/31 07:08:16;;;;;;;13.93;8.05;;;34.90;52.00;;;;;;5013182;28;20101;-75
2021/08/31 07:10:42;;;;;;;11.18;8.25;;;35.50;50.90;;;;;;5013842;28;20075;-75
2021/08/31 07:13:08;;;;;;;12.10;8.13;;;35.90;49.80;;;;;;5012000;28;20499;-77
2021/08/31 07:15:34;;;;;;;13.38;8.38;;;35.90;49.10;;;;;;5004348;28;20027;-77
2021/08/31 07:18:00;;;;;;;9.00;7.68;;;36.30;48.70;;;;;;4994681;28;20126;-75
2021/08/31 07:20:27;;;;;;;10.50;7.63;;;36.60;48.00;;;;;;5001216;28;20023;-75
2021/08/31 07:22:53;;;;;;;10.13;7.82;;;36.90;47.10;;;;;;5002957;28;20468;-75
2021/08/31 07:25:19;;;;;;;11.98;8.95;;;37.10;46.30;;;;;;4994488;28;20026;-75
2021/08/31 07:27:45;;;;;;;12.82;7.25;;;37.30;45.90;;;;;;4994486;28;20408;-76
2021/08/31 07:30:12;;;;;;;8.20;7.00;;;37.40;45.30;;;;;;4995045;28;20029;-76
2021/08/31 07:32:38;;;;;;;8.23;6.85;;;37.60;44.60;;;;;;5004999;28;20030;-75
2021/08/31 07:35:04;;;;;;;11.35;6.43;;;37.60;44.30;;;;;;4993824;28;20535;-78
2021/08/31 07:37:30;;;;;;;7.97;6.07;;;37.50;43.90;;;;;;4994222;28;20102;-74
2021/08/31 07:39:55;;;;;;;9.63;6.35;;;37.50;43.60;;;;;;4994180;28;20434;-75
2021/08/31 07:42:21;;;;;;;12.85;6.57;;;37.50;43.20;;;;;;4994010;28;20101;-74
2021/08/31 07:44:47;;;;;;;9.40;7.65;;;37.40;43.20;;;;;;4994272;28;20072;-74
2021/08/31 07:47:14;;;;;;;12.88;5.90;;;37.20;43.20;;;;;;4994373;28;20834;-75
2021/08/31 07:49:40;;;;;;;6.38;5.68;;;37.10;42.80;;;;;;4994265;28;20061;-77
2021/08/31 07:52:06;;;;;;;8.52;5.50;;;36.90;42.30;;;;;;4993949;28;20361;-76
2021/08/31 07:54:32;;;;;;;13.00;5.28;;;36.60;42.40;;;;;;4993782;28;20050;-76
2021/08/31 07:56:58;;;;;;;7.68;5.68;;;36.40;42.80;;;;;;4993857;28;20429;-76
2021/08/31 07:59:23;;;;;;;11.98;6.10;;;36.30;43.10;;;;;;4993647;28;20385;-76
2021/08/31 08:01:49;;;;;;;7.85;5.88;;;36.20;42.70;;;;;;4994146;28;20077;-76
2021/08/31 08:04:15;;;;;;;15.18;6.63;;;36.00;42.90;;;;;;4993718;28;20031;-75
2021/08/31 08:06:42;;;;;;;7.78;5.28;;;35.80;43.20;;;;;;4993499;28;20038;-77
2021/08/31 08:09:08;;;;;;;8.23;5.28;;;35.70;43.00;;;;;;4993502;28;20022;-75
2021/08/31 08:11:34;;;;;;;9.82;5.50;;;35.50;43.20;;;;;;4993655;28;20034;-77
2021/08/31 08:13:59;;;;;;;9.57;5.10;;;35.20;43.10;;;;;;4993336;28;20077;-76
2021/08/31 08:16:25;;;;;;;9.13;5.13;;;35.00;43.30;;;;;;4993058;28;20034;-77
2021/08/31 08:18:51;;;;;;;8.32;5.50;;;34.90;43.40;;;;;;4993419;28;20033;-76
2021/08/31 08:21:17;;;;;;;9.27;6.63;;;34.80;43.50;;;;;;4991588;28;20121;-75
2021/08/31 08:23:43;;;;;;;9.82;5.03;;;34.60;43.30;;;;;;4992949;28;20422;-76
2021/08/31 08:26:10;;;;;;;14.35;5.30;;;34.50;43.70;;;;;;4993189;28;20030;-76
2021/08/31 08:28:36;;;;;;;6.82;4.88;;;34.40;43.50;;;;;;4992885;28;20026;-75
2021/08/31 08:31:02;;;;;;;8.00;5.38;;;34.40;43.70;;;;;;4992886;28;20026;-77
2021/08/31 08:33:31;;;;;;;6.80;4.72;;;34.30;43.80;;;;;;4993318;28;20026;-77
2021/08/31 08:35:58;;;;;;;6.18;4.93;;;34.20;43.50;;;;;;4993332;28;20026;-76
2021/08/31 08:38:24;;;;;;;7.15;4.93;;;34.10;43.30;;;;;;4993083;28;20022;-76
2021/08/31 08:40:50;;;;;;;10.93;4.80;;;34.00;43.40;;;;;;5000758;28;20022;-77
2021/08/31 08:43:16;;;;;;;20.85;4.80;;;33.90;43.40;;;;;;5012476;28;20052;-79
2021/08/31 08:45:47;;;;;;;6.43;4.57;;;33.80;43.70;;;;;;5012331;28;20038;-76
2021/08/31 08:48:18;;;;;;;11.30;4.57;;;33.70;43.70;;;;;;5012255;28;20037;-76
2021/08/31 08:50:45;;;;;;;7.03;4.28;;;33.50;43.50;;;;;;5012097;28;20032;-76
2021/08/31 08:53:11;;;;;;;8.27;4.45;;;33.40;43.60;;;;;;5005805;28;20036;-77
2021/08/31 08:55:37;;;;;;;8.32;4.30;;;33.30;43.60;;;;;;4999806;28;20026;-77
2021/08/31 08:58:03;;;;;;;8.63;4.38;;;33.10;43.50;;;;;;5007729;28;20112;-74
2021/08/31 09:00:53;;;;;;;4.88;3.70;;;33.00;43.40;;;;;;5011889;28;20072;-74
2021/08/31 09:03:21;;;;;;;4.97;3.78;;;32.90;43.60;;;;;;5015033;28;20058;-76
2021/08/31 09:05:47;;;;;;;5.25;3.80;;;32.80;43.80;;;;;;5012155;28;20119;-76
2021/08/31 09:08:13;;;;;;;5.15;3.92;;;32.80;44.10;;;;;;5006905;28;20600;-75
2021/08/31 09:10:45;;;;;;;9.30;4.07;;;32.80;44.10;;;;;;5010524;28;20046;-76
2021/08/31 09:13:11;;;;;;;8.60;5.03;;;32.70;44.10;;;;;;5011850;28;20535;-76
2021/08/31 09:15:41;;;;;;;7.75;4.00;;;32.80;44.50;;;;;;4993924;28;20542;-76
2021/08/31 09:18:17;;;;;;;4.78;3.63;;;32.70;44.30;;;;;;5011813;28;20417;-76
2021/08/31 09:20:55;;;;;;;3.95;3.55;;;32.70;44.20;;;;;;5011793;28;20026;-76
2021/08/31 09:23:35;;;;;;;4.28;3.47;;;32.60;43.90;;;;;;5011472;28;20041;-75
2021/08/31 09:26:06;;;;;;;6.28;3.80;;;32.50;43.90;;;;;;5011644;28;20057;-76
2021/08/31 09:28:38;;;;;;;16.85;4.25;;;32.50;44.10;;;;;;5010769;28;20029;-75
2021/08/31 09:31:18;;;;;;;6.45;3.50;;;32.50;44.40;;;;;;5011626;28;20058;-75
2021/08/31 09:33:49;;;;;;;6.45;3.65;;;32.40;44.30;;;;;;5011557;28;20033;-75
2021/08/31 09:36:14;;;;;;;5.53;4.45;;;32.30;43.80;;;;;;5011412;28;20452;-76
2021/08/31 09:38:58;;;;;;;8.02;3.70;;;32.20;43.80;;;;;;5011379;28;20065;-77
2021/08/31 09:41:41;;;;;;;5.57;3.80;;;32.20;43.80;;;;;;5004247;28;20114;-76
2021/08/31 09:44:14;;;;;;;8.73;4.20;;;32.10;43.80;;;;;;5001173;28;20026;-76
2021/08/31 09:47:00;;;;;;;5.13;3.35;;;32.00;44.10;;;;;;5011488;28;20487;-74
2021/08/31 09:49:31;;;;;;;5.28;4.65;;;31.90;44.40;;;;;;5011404;28;20094;-75
2021/08/31 09:52:15;;;;;;;5.03;4.13;;;31.90;44.70;;;;;;5005044;28;20026;-76
2021/08/31 09:54:42;;;;;;;7.25;4.13;;;31.80;44.80;;;;;;5000597;28;20041;-78
2021/08/31 09:57:25;;;;;;;6.47;3.60;;;31.70;44.20;;;;;;5001779;28;20049;-79
2021/08/31 09:59:51;;;;;;;6.25;3.60;;;31.70;44.10;;;;;;5000104;28;20125;-81
2021/08/31 10:02:17;;;;;;;7.65;4.78;;;31.70;44.10;;;;;;5009095;28;20101;-80
2021/08/31 10:04:43;;;;;;;5.25;3.90;;;31.60;44.00;;;;;;4994772;28;20168;-80
2021/08/31 10:07:10;;;;;;;4.80;4.20;;;31.60;44.30;;;;;;5011091;28;20022;-80
2021/08/31 10:09:39;;;;;;;4.75;3.85;;;31.50;44.50;;;;;;5011360;28;20014;-81
2021/08/31 10:12:09;;;;;;;4.55;3.17;;;31.50;44.90;;;;;;5011100;28;20100;-77
2021/08/31 10:14:42;;;;;;;6.10;3.63;;;31.50;44.80;;;;;;5011060;28;20495;-76
2021/08/31 10:17:10;;;;;;;3.20;3.00;;;31.50;44.70;;;;;;4993145;28;20034;-78
2021/08/31 10:19:39;;;;;;;5.30;3.47;;;31.50;44.40;;;;;;5011209;28;20417;-77
2021/08/31 10:22:05;;;;;;;4.78;3.25;;;31.40;44.60;;;;;;5010803;28;20447;-76
2021/08/31 10:24:31;;;;;;;9.27;3.80;;;31.30;44.70;;;;;;5011047;28;20022;-78
2021/08/31 10:26:56;;;;;;;3.58;3.28;;;31.10;45.10;;;;;;5011032;28;20022;-78
2021/08/31 10:29:22;;;;;;;5.20;3.50;;;31.00;45.40;;;;;;5011174;28;20360;-77
2021/08/31 10:31:50;;;;;;;3.90;3.53;;;31.00;45.50;;;;;;4993229;28;20057;-76
2021/08/31 10:34:31;;;;;;;5.43;3.33;;;30.80;45.30;;;;;;5009820;28;20472;-77
2021/08/31 10:37:00;;;;;;;5.53;3.40;;;30.50;45.40;;;;;;5011058;28;20040;-78
2021/08/31 10:39:54;;;;;;;5.10;3.20;;;30.50;45.40;;;;;;5012349;28;20548;-77
2021/08/31 10:42:29;;;;;;;5.10;3.22;;;30.50;45.60;;;;;;5014413;28;20124;-77
2021/08/31 10:45:01;;;;;;;5.03;3.05;;;30.60;45.50;;;;;;5013588;28;20499;-76
2021/08/31 10:47:38;;;;;;;7.40;3.50;;;30.60;45.40;;;;;;5014557;28;20475;-76
2021/08/31 10:50:08;;;;;;;3.20;2.90;;;30.70;45.30;;;;;;5013275;28;20037;-77
2021/08/31 10:52:50;;;;;;;5.72;3.40;;;30.80;45.10;;;;;;5014571;28;20025;-78
2021/08/31 10:55:18;;;;;;;;;;;30.80;44.40;;;;;;5013430;28;20026;-77
2021/08/31 10:57:45;;;;;;;6.28;3.10;;;30.80;44.80;;;;;;5013037;28;19992;-76
2021/08/31 11:00:16;;;;;;;3.50;3.13;;;30.70;44.80;;;;;;5012273;28;20029;-78
2021/08/31 11:02:48;;;;;;;5.85;3.30;;;30.70;44.60;;;;;;5010238;28;20026;-76
2021/08/31 11:05:24;;;;;;;;;;;30.40;44.80;;;;;;5011125;28;20044;-75
2021/08/31 11:08:11;;;;;;;4.60;3.67;;;30.30;45.10;;;;;;4995881;28;19945;-75
2021/08/31 11:10:40;;;;;;;5.63;3.40;;;30.10;45.30;;;;;;5011855;28;20072;-75
2021/08/31 11:13:09;;;;;;;8.95;4.13;;;30.00;45.80;;;;;;5004808;28;20034;-75
2021/08/31 11:15:36;;;;;;;6.50;3.85;;;29.90;46.10;;;;;;4993871;28;20036;-76
2021/08/31 11:18:13;;;;;;;4.00;3.60;;;29.90;46.00;;;;;;4997457;28;20081;-75
2021/08/31 11:20:41;;;;;;;9.25;4.10;;;29.80;45.80;;;;;;4999699;28;20094;-75
2021/08/31 11:23:14;;;;;;;4.93;3.97;;;29.70;45.80;;;;;;4976098;28;20527;-75
2021/08/31 11:25:45;;;;;;;11.90;4.18;;;29.50;46.00;;;;;;4993689;28;20101;-75
2021/08/31 11:28:14;;;;;;;8.55;4.55;;;29.30;45.90;;;;;;4993392;28;20027;-75
2021/08/31 11:30:49;;;;;;;4.65;3.13;;;29.30;45.90;;;;;;4993334;28;20037;-75
2021/08/31 11:33:40;;;;;;;6.78;3.92;;;29.20;46.30;;;;;;4993709;28;20105;-75
2021/08/31 11:36:09;;;;;;;5.63;3.47;;;29.20;46.50;;;;;;4995198;28;20431;-75
2021/08/31 11:38:43;;;;;;;4.18;3.80;;;29.30;46.80;;;;;;4992448;28;20073;-76
2021/08/31 11:41:19;;;;;;;4.63;3.40;;;29.40;47.00;;;;;;4996044;28;20065;-76
2021/08/31 11:43:46;;;;;;;5.57;3.80;;;29.60;47.30;;;;;;5004576;28;20134;-74
2021/08/31 11:46:12;;;;;;;3.92;3.60;;;29.60;47.20;;;;;;5013081;28;20104;-75
2021/08/31 11:48:38;;;;;;;8.07;3.67;;;29.70;46.90;;;;;;4995218;28;20493;-77
2021/08/31 11:51:04;;;;;;;6.38;3.85;;;29.80;46.80;;;;;;5011414;28;20058;-76
2021/08/31 11:53:30;;;;;;;6.22;3.25;;;29.70;46.60;;;;;;5013201;28;20101;-77
2021/08/31 11:56:02;;;;;;;5.50;3.47;;;29.70;46.60;;;;;;5012996;28;20108;-77
2021/08/31 11:58:29;;;;;;;6.80;3.85;;;29.50;46.80;;;;;;5013204;28;20499;-76
2021/08/31 12:00:56;;;;;;;3.63;3.13;;;29.40;47.30;;;;;;5013193;28;20026;-75
2021/08/31 12:03:29;;;;;;;5.25;4.40;;;29.40;47.20;;;;;;5011532;28;20026;-76
2021/08/31 12:06:15;;;;;;;5.95;5.43;;;29.40;47.40;;;;;;5012835;28;20018;-75
2021/08/31 12:08:44;;;;;;;8.50;4.00;;;29.40;47.50;;;;;;5012619;28;20041;-76
2021/08/31 12:11:12;;;;;;;7.53;4.55;;;29.40;47.70;;;;;;5013045;28;20037;-76
2021/08/31 12:13:42;;;;;;;10.05;4.30;;;29.40;47.50;;;;;;5012779;28;20081;-76
2021/08/31 12:16:11;;;;;;;6.35;3.70;;;29.50;47.60;;;;;;5013132;28;20022;-75
2021/08/31 12:18:37;;;;;;;6.28;3.70;;;29.60;47.60;;;;;;5012690;28;20029;-75
2021/08/31 12:21:18;;;;;;;5.65;3.30;;;29.60;47.40;;;;;;5012578;28;20018;-75
2021/08/31 12:23:45;;;;;;;6.00;4.00;;;29.60;47.00;;;;;;5012718;28;20160;-75
2021/08/31 12:26:30;;;;;;;4.68;3.50;;;29.60;47.00;;;;;;5013140;28;20033;-76
2021/08/31 12:29:10;;;;;;;8.70;3.50;;;29.60;46.80;;;;;;5012438;28;20021;-74
2021/08/31 12:31:37;;;;;;;5.18;3.55;;;29.60;46.80;;;;;;5012322;28;20049;-75
2021/08/31 12:34:28;;;;;;;5.68;4.10;;;29.60;47.10;;;;;;4994627;28;20068;-76
2021/08/31 12:36:54;;;;;;;7.30;3.35;;;29.70;47.30;;;;;;5011810;28;20055;-74
2021/08/31 12:39:28;;;;;;;6.95;3.53;;;29.80;46.80;;;;;;5011501;28;20034;-73